sensor_id;sensor_type;location;lat;lon;timestamp;P1;durP1;ratioP1;P2;durP2;ratioP2
11414;SDS011;5763;42.714;23.244;2023-04-06T00:00:05;5.63;;;5.00;;
11414;SDS011;5763;42.714;23.244;2023-04-06T00:02:33;6.72;;;5.05;;
11414;SDS011;5763;42.714;23.244;2023-04-06T00:05:00;5.88;;;5.13;;
11414;SDS011;5763;42.714;23.244;2023-04-06T00:07:27;7.38;;;5.20;;
11414;SDS011;5763;42.714;23.244;2023-04-06T00:09:54;6.65;;;5.30;;
11414;SDS011;5763;42.714;23.244;2023-04-06T00:12:21;5.78;;;5.22;;
11414;SDS011;5763;42.714;23.244;2023-04-06T00:14:50;6.85;;;5.90;;
11414;SDS011;5763;42.714;23.244;2023-04-06T00:17:17;6.20;;;5.15;;
11414;SDS011;5763;42.714;23.244;2023-04-06T00:19:43;6.88;;;5.55;;
11414;SDS011;5763;42.714;23.244;2023-04-06T00:22:11;6.72;;;5.15;;
11414;SDS011;5763;42.714;23.244;2023-04-06T00:24:37;7.57;;;6.18;;
11414;SDS011;5763;42.714;23.244;2023-04-06T00:27:04;7.10;;;5.85;;
11414;SDS011;5763;42.714;23.244;2023-04-06T00:29:31;6.47;;;5.43;;
11414;SDS011;5763;42.714;23.244;2023-04-06T00:31:59;6.70;;;5.57;;
11414;SDS011;5763;42.714;23.244;2023-04-06T00:34:26;6.72;;;5.60;;
11414;SDS011;5763;42.714;23.244;2023-04-06T00:36:53;6.53;;;5.00;;
11414;SDS011;5763;42.714;23.244;2023-04-06T00:39:19;7.47;;;5.72;;
11414;SDS011;5763;42.714;23.244;2023-04-06T00:41:49;6.57;;;5.88;;
11414;SDS011;5763;42.714;23.244;2023-04-06T00:44:18;6.35;;;5.72;;
11414;SDS011;5763;42.714;23.244;2023-04-06T00:46:45;7.75;;;5.88;;
11414;SDS011;5763;42.714;23.244;2023-04-06T00:49:13;6.43;;;5.35;;
11414;SDS011;5763;42.714;23.244;2023-04-06T00:51:40;7.68;;;6.03;;
11414;SDS011;5763;42.714;23.244;2023-04-06T00:54:07;8.32;;;5.97;;
11414;SDS011;5763;42.714;23.244;2023-04-06T00:56:34;6.47;;;5.80;;
11414;SDS011;5763;42.714;23.244;2023-04-06T00:59:01;6.30;;;5.15;;
11414;SDS011;5763;42.714;23.244;2023-04-06T01:01:29;7.38;;;6.03;;
11414;SDS011;5763;42.714;23.244;2023-04-06T01:03:57;6.03;;;5.30;;
11414;SDS011;5763;42.714;23.244;2023-04-06T01:06:26;6.15;;;5.30;;
11414;SDS011;5763;42.714;23.244;2023-04-06T01:08:53;6.10;;;5.25;;
11414;SDS011;5763;42.714;23.244;2023-04-06T01:11:19;6.30;;;5.22;;
11414;SDS011;5763;42.714;23.244;2023-04-06T01:13:46;6.78;;;5.45;;
11414;SDS011;5763;42.714;23.244;2023-04-06T01:16:13;5.97;;;5.20;;
11414;SDS011;5763;42.714;23.244;2023-04-06T01:18:41;6.68;;;5.57;;
11414;SDS011;5763;42.714;23.244;2023-04-06T01:21:08;5.97;;;5.38;;
11414;SDS011;5763;42.714;23.244;2023-04-06T01:23:42;6.88;;;5.55;;
11414;SDS011;5763;42.714;23.244;2023-04-06T01:26:10;7.45;;;5.68;;
11414;SDS011;5763;42.714;23.244;2023-04-06T01:28:36;6.32;;;4.95;;
11414;SDS011;5763;42.714;23.244;2023-04-06T01:31:03;5.50;;;4.90;;
11414;SDS011;5763;42.714;23.244;2023-04-06T01:33:30;6.40;;;5.20;;
11414;SDS011;5763;42.714;23.244;2023-04-06T01:35:57;6.07;;;4.95;;
11414;SDS011;5763;42.714;23.244;2023-04-06T01:38:24;6.15;;;4.90;;
11414;SDS011;5763;42.714;23.244;2023-04-06T01:40:53;6.72;;;5.85;;
11414;SDS011;5763;42.714;23.244;2023-04-06T01:43:20;6.93;;;6.18;;
11414;SDS011;5763;42.714;23.244;2023-04-06T01:45:47;6.90;;;5.80;;
11414;SDS011;5763;42.714;23.244;2023-04-06T01:48:14;7.65;;;6.40;;
11414;SDS011;5763;42.714;23.244;2023-04-06T01:50:41;9.25;;;6.75;;
11414;SDS011;5763;42.714;23.244;2023-04-06T01:53:08;8.10;;;6.30;;
11414;SDS011;5763;42.714;23.244;2023-04-06T01:55:35;7.40;;;6.13;;
11414;SDS011;5763;42.714;23.244;2023-04-06T01:58:03;6.82;;;5.95;;
11414;SDS011;5763;42.714;23.244;2023-04-06T02:00:30;8.45;;;6.18;;
11414;SDS011;5763;42.714;23.244;2023-04-06T02:02:56;6.70;;;6.00;;
11414;SDS011;5763;42.714;23.244;2023-04-06T02:05:23;9.00;;;6.65;;
11414;SDS011;5763;42.714;23.244;2023-04-06T02:07:51;8.18;;;6.15;;
11414;SDS011;5763;42.714;23.244;2023-04-06T02:10:18;7.45;;;6.20;;
11414;SDS011;5763;42.714;23.244;2023-04-06T02:12:44;7.63;;;6.82;;
11414;SDS011;5763;42.714;23.244;2023-04-06T02:15:12;8.82;;;7.30;;
11414;SDS011;5763;42.714;23.244;2023-04-06T02:17:39;9.55;;;8.20;;
11414;SDS011;5763;42.714;23.244;2023-04-06T02:20:07;8.15;;;7.07;;
11414;SDS011;5763;42.714;23.244;2023-04-06T02:22:34;9.77;;;7.65;;
11414;SDS011;5763;42.714;23.244;2023-04-06T02:25:01;9.30;;;7.75;;
11414;SDS011;5763;42.714;23.244;2023-04-06T02:27:28;8.75;;;7.68;;
11414;SDS011;5763;42.714;23.244;2023-04-06T02:29:55;9.85;;;8.32;;
11414;SDS011;5763;42.714;23.244;2023-04-06T02:32:23;12.90;;;8.48;;
11414;SDS011;5763;42.714;23.244;2023-04-06T02:34:50;8.80;;;7.70;;
11414;SDS011;5763;42.714;23.244;2023-04-06T02:37:17;9.20;;;8.15;;
11414;SDS011;5763;42.714;23.244;2023-04-06T02:39:44;9.30;;;7.88;;
11414;SDS011;5763;42.714;23.244;2023-04-06T02:42:11;8.90;;;7.70;;
11414;SDS011;5763;42.714;23.244;2023-04-06T02:44:40;8.82;;;6.90;;
11414;SDS011;5763;42.714;23.244;2023-04-06T02:47:06;7.90;;;7.00;;
11414;SDS011;5763;42.714;23.244;2023-04-06T02:49:35;7.40;;;6.60;;
11414;SDS011;5763;42.714;23.244;2023-04-06T02:52:01;9.38;;;6.97;;
11414;SDS011;5763;42.714;23.244;2023-04-06T02:54:29;8.02;;;7.22;;
11414;SDS011;5763;42.714;23.244;2023-04-06T02:56:56;7.80;;;6.15;;
11414;SDS011;5763;42.714;23.244;2023-04-06T02:59:23;7.28;;;5.82;;
11414;SDS011;5763;42.714;23.244;2023-04-06T03:01:49;6.32;;;5.20;;
11414;SDS011;5763;42.714;23.244;2023-04-06T03:04:16;5.53;;;4.65;;
11414;SDS011;5763;42.714;23.244;2023-04-06T03:06:44;6.32;;;4.53;;
11414;SDS011;5763;42.714;23.244;2023-04-06T03:09:11;5.03;;;4.40;;
11414;SDS011;5763;42.714;23.244;2023-04-06T03:11:39;4.75;;;4.25;;
11414;SDS011;5763;42.714;23.244;2023-04-06T03:14:06;6.18;;;4.30;;
11414;SDS011;5763;42.714;23.244;2023-04-06T03:16:32;5.20;;;3.97;;
11414;SDS011;5763;42.714;23.244;2023-04-06T03:18:59;6.60;;;4.70;;
11414;SDS011;5763;42.714;23.244;2023-04-06T03:21:26;5.88;;;4.60;;
11414;SDS011;5763;42.714;23.244;2023-04-06T03:23:54;4.95;;;4.45;;
11414;SDS011;5763;42.714;23.244;2023-04-06T03:26:21;6.82;;;5.03;;
11414;SDS011;5763;42.714;23.244;2023-04-06T03:28:48;5.80;;;4.50;;
11414;SDS011;5763;42.714;23.244;2023-04-06T03:31:15;6.07;;;4.63;;
11414;SDS011;5763;42.714;23.244;2023-04-06T03:33:42;5.80;;;4.68;;
11414;SDS011;5763;42.714;23.244;2023-04-06T03:36:08;5.18;;;4.43;;
11414;SDS011;5763;42.714;23.244;2023-04-06T03:38:35;7.03;;;5.00;;
11414;SDS011;5763;42.714;23.244;2023-04-06T03:41:03;7.88;;;6.05;;
11414;SDS011;5763;42.714;23.244;2023-04-06T03:43:30;8.18;;;6.53;;
11414;SDS011;5763;42.714;23.244;2023-04-06T03:45:57;11.98;;;8.15;;
11414;SDS011;5763;42.714;23.244;2023-04-06T03:48:24;9.32;;;7.78;;
11414;SDS011;5763;42.714;23.244;2023-04-06T03:50:51;10.00;;;8.88;;
11414;SDS011;5763;42.714;23.244;2023-04-06T03:53:17;11.00;;;8.60;;
11414;SDS011;5763;42.714;23.244;2023-04-06T03:55:44;12.50;;;9.73;;
11414;SDS011;5763;42.714;23.244;2023-04-06T03:58:12;11.25;;;8.77;;
11414;SDS011;5763;42.714;23.244;2023-04-06T04:00:39;9.55;;;8.15;;
11414;SDS011;5763;42.714;23.244;2023-04-06T04:03:06;11.05;;;8.68;;
11414;SDS011;5763;42.714;23.244;2023-04-06T04:05:33;10.40;;;9.10;;
11414;SDS011;5763;42.714;23.244;2023-04-06T04:08:00;12.20;;;9.43;;
11414;SDS011;5763;42.714;23.244;2023-04-06T04:10:26;13.48;;;9.65;;
11414;SDS011;5763;42.714;23.244;2023-04-06T04:12:53;11.27;;;8.52;;
11414;SDS011;5763;42.714;23.244;2023-04-06T04:15:22;10.65;;;8.35;;
11414;SDS011;5763;42.714;23.244;2023-04-06T04:17:48;11.63;;;9.05;;
11414;SDS011;5763;42.714;23.244;2023-04-06T04:20:16;12.93;;;9.75;;
11414;SDS011;5763;42.714;23.244;2023-04-06T04:22:42;12.10;;;9.60;;
11414;SDS011;5763;42.714;23.244;2023-04-06T04:25:09;10.60;;;9.15;;
11414;SDS011;5763;42.714;23.244;2023-04-06T04:27:36;11.40;;;9.02;;
11414;SDS011;5763;42.714;23.244;2023-04-06T04:30:03;10.77;;;8.30;;
11414;SDS011;5763;42.714;23.244;2023-04-06T04:32:32;7.40;;;6.65;;
11414;SDS011;5763;42.714;23.244;2023-04-06T04:34:59;6.93;;;5.85;;
11414;SDS011;5763;42.714;23.244;2023-04-06T04:37:26;6.65;;;5.65;;
11414;SDS011;5763;42.714;23.244;2023-04-06T04:39:53;7.30;;;5.45;;
11414;SDS011;5763;42.714;23.244;2023-04-06T04:42:20;7.90;;;5.53;;
11414;SDS011;5763;42.714;23.244;2023-04-06T04:44:47;9.05;;;5.65;;
11414;SDS011;5763;42.714;23.244;2023-04-06T04:47:14;9.10;;;5.88;;
11414;SDS011;5763;42.714;23.244;2023-04-06T04:49:42;6.70;;;5.53;;
11414;SDS011;5763;42.714;23.244;2023-04-06T04:52:09;8.60;;;6.05;;
11414;SDS011;5763;42.714;23.244;2023-04-06T04:54:36;8.50;;;6.22;;
11414;SDS011;5763;42.714;23.244;2023-04-06T04:57:02;9.55;;;6.70;;
11414;SDS011;5763;42.714;23.244;2023-04-06T04:59:29;10.40;;;7.32;;
11414;SDS011;5763;42.714;23.244;2023-04-06T05:01:56;6.65;;;5.55;;
11414;SDS011;5763;42.714;23.244;2023-04-06T05:04:23;8.27;;;6.32;;
11414;SDS011;5763;42.714;23.244;2023-04-06T05:06:51;7.90;;;5.93;;
11414;SDS011;5763;42.714;23.244;2023-04-06T05:09:29;6.28;;;5.45;;
11414;SDS011;5763;42.714;23.244;2023-04-06T05:11:56;7.35;;;5.88;;
11414;SDS011;5763;42.714;23.244;2023-04-06T05:14:23;9.05;;;6.80;;
11414;SDS011;5763;42.714;23.244;2023-04-06T05:16:50;9.98;;;7.07;;
11414;SDS011;5763;42.714;23.244;2023-04-06T05:19:17;9.82;;;7.40;;
11414;SDS011;5763;42.714;23.244;2023-04-06T05:21:43;9.55;;;6.85;;
11414;SDS011;5763;42.714;23.244;2023-04-06T05:24:12;11.45;;;8.55;;
11414;SDS011;5763;42.714;23.244;2023-04-06T05:26:39;9.68;;;7.82;;
11414;SDS011;5763;42.714;23.244;2023-04-06T05:29:05;11.77;;;8.10;;
11414;SDS011;5763;42.714;23.244;2023-04-06T05:31:32;8.88;;;7.15;;
11414;SDS011;5763;42.714;23.244;2023-04-06T05:33:59;9.75;;;7.93;;
11414;SDS011;5763;42.714;23.244;2023-04-06T05:36:26;12.32;;;8.82;;
11414;SDS011;5763;42.714;23.244;2023-04-06T05:38:53;11.40;;;8.27;;
11414;SDS011;5763;42.714;23.244;2023-04-06T05:41:22;10.68;;;8.10;;
11414;SDS011;5763;42.714;23.244;2023-04-06T05:43:49;13.88;;;9.15;;
11414;SDS011;5763;42.714;23.244;2023-04-06T05:46:16;11.00;;;8.80;;
11414;SDS011;5763;42.714;23.244;2023-04-06T05:48:43;12.13;;;9.07;;
11414;SDS011;5763;42.714;23.244;2023-04-06T05:51:10;10.90;;;8.90;;
11414;SDS011;5763;42.714;23.244;2023-04-06T05:53:37;9.85;;;8.63;;
11414;SDS011;5763;42.714;23.244;2023-04-06T05:56:04;12.95;;;9.27;;
11414;SDS011;5763;42.714;23.244;2023-04-06T05:58:32;13.10;;;9.43;;
11414;SDS011;5763;42.714;23.244;2023-04-06T06:00:59;12.30;;;8.63;;
11414;SDS011;5763;42.714;23.244;2023-04-06T06:03:27;10.52;;;8.45;;
11414;SDS011;5763;42.714;23.244;2023-04-06T06:05:59;11.38;;;8.07;;
11414;SDS011;5763;42.714;23.244;2023-04-06T06:08:26;10.82;;;8.23;;
11414;SDS011;5763;42.714;23.244;2023-04-06T06:10:53;10.90;;;7.65;;
11414;SDS011;5763;42.714;23.244;2023-04-06T06:13:20;12.38;;;7.72;;
11414;SDS011;5763;42.714;23.244;2023-04-06T06:15:48;11.27;;;8.23;;
11414;SDS011;5763;42.714;23.244;2023-04-06T06:18:15;11.15;;;8.23;;
11414;SDS011;5763;42.714;23.244;2023-04-06T06:20:42;10.30;;;7.80;;
11414;SDS011;5763;42.714;23.244;2023-04-06T06:23:09;10.55;;;7.72;;
11414;SDS011;5763;42.714;23.244;2023-04-06T06:25:35;11.43;;;8.38;;
11414;SDS011;5763;42.714;23.244;2023-04-06T06:28:02;12.65;;;8.85;;
11414;SDS011;5763;42.714;23.244;2023-04-06T06:30:29;10.15;;;7.60;;
11414;SDS011;5763;42.714;23.244;2023-04-06T06:32:57;11.35;;;8.63;;
11414;SDS011;5763;42.714;23.244;2023-04-06T06:35:24;10.73;;;8.23;;
11414;SDS011;5763;42.714;23.244;2023-04-06T06:37:51;12.13;;;9.35;;
11414;SDS011;5763;42.714;23.244;2023-04-06T06:40:18;12.48;;;9.25;;
11414;SDS011;5763;42.714;23.244;2023-04-06T06:42:47;8.90;;;7.18;;
11414;SDS011;5763;42.714;23.244;2023-04-06T06:45:14;10.93;;;8.20;;
11414;SDS011;5763;42.714;23.244;2023-04-06T06:47:41;9.98;;;8.23;;
11414;SDS011;5763;42.714;23.244;2023-04-06T06:50:09;11.48;;;8.52;;
11414;SDS011;5763;42.714;23.244;2023-04-06T06:52:36;12.30;;;8.98;;
11414;SDS011;5763;42.714;23.244;2023-04-06T06:55:03;9.70;;;8.43;;
11414;SDS011;5763;42.714;23.244;2023-04-06T06:57:30;10.88;;;7.88;;
11414;SDS011;5763;42.714;23.244;2023-04-06T06:59:57;11.77;;;9.15;;
11414;SDS011;5763;42.714;23.244;2023-04-06T07:02:24;14.73;;;8.13;;
11414;SDS011;5763;42.714;23.244;2023-04-06T07:04:51;11.30;;;8.57;;
11414;SDS011;5763;42.714;23.244;2023-04-06T07:07:19;10.32;;;8.43;;
11414;SDS011;5763;42.714;23.244;2023-04-06T07:09:46;10.77;;;8.15;;
11414;SDS011;5763;42.714;23.244;2023-04-06T07:12:13;11.73;;;8.38;;
11414;SDS011;5763;42.714;23.244;2023-04-06T07:14:41;10.13;;;7.47;;
11414;SDS011;5763;42.714;23.244;2023-04-06T07:17:07;10.18;;;8.23;;
11414;SDS011;5763;42.714;23.244;2023-04-06T07:19:34;9.52;;;7.72;;
11414;SDS011;5763;42.714;23.244;2023-04-06T07:22:01;9.77;;;7.93;;
11414;SDS011;5763;42.714;23.244;2023-04-06T07:24:31;10.55;;;7.68;;
11414;SDS011;5763;42.714;23.244;2023-04-06T07:26:58;11.23;;;8.25;;
11414;SDS011;5763;42.714;23.244;2023-04-06T07:29:26;10.60;;;8.50;;
11414;SDS011;5763;42.714;23.244;2023-04-06T07:31:53;8.82;;;7.50;;
11414;SDS011;5763;42.714;23.244;2023-04-06T07:34:20;9.75;;;7.78;;
11414;SDS011;5763;42.714;23.244;2023-04-06T07:36:46;10.43;;;8.40;;
11414;SDS011;5763;42.714;23.244;2023-04-06T07:39:13;11.02;;;8.73;;
11414;SDS011;5763;42.714;23.244;2023-04-06T07:41:42;11.52;;;8.57;;
11414;SDS011;5763;42.714;23.244;2023-04-06T07:44:09;13.75;;;8.25;;
11414;SDS011;5763;42.714;23.244;2023-04-06T07:46:36;10.85;;;7.95;;
11414;SDS011;5763;42.714;23.244;2023-04-06T07:49:03;10.88;;;8.95;;
11414;SDS011;5763;42.714;23.244;2023-04-06T07:51:30;9.63;;;8.50;;
11414;SDS011;5763;42.714;23.244;2023-04-06T07:53:57;9.98;;;7.57;;
11414;SDS011;5763;42.714;23.244;2023-04-06T07:56:23;10.73;;;7.53;;
11414;SDS011;5763;42.714;23.244;2023-04-06T07:58:52;9.00;;;7.88;;
11414;SDS011;5763;42.714;23.244;2023-04-06T08:01:20;9.52;;;8.02;;
11414;SDS011;5763;42.714;23.244;2023-04-06T08:03:47;11.30;;;7.72;;
11414;SDS011;5763;42.714;23.244;2023-04-06T08:06:14;9.00;;;7.82;;
11414;SDS011;5763;42.714;23.244;2023-04-06T08:08:41;11.73;;;7.80;;
11414;SDS011;5763;42.714;23.244;2023-04-06T08:11:08;11.05;;;8.10;;
11414;SDS011;5763;42.714;23.244;2023-04-06T08:13:35;11.35;;;8.27;;
11414;SDS011;5763;42.714;23.244;2023-04-06T08:16:03;8.68;;;7.57;;
11414;SDS011;5763;42.714;23.244;2023-04-06T08:18:31;9.50;;;7.90;;
11414;SDS011;5763;42.714;23.244;2023-04-06T08:20:58;11.02;;;8.32;;
11414;SDS011;5763;42.714;23.244;2023-04-06T08:23:25;8.98;;;6.95;;
11414;SDS011;5763;42.714;23.244;2023-04-06T08:25:51;9.35;;;8.27;;
11414;SDS011;5763;42.714;23.244;2023-04-06T08:28:19;8.40;;;6.95;;
11414;SDS011;5763;42.714;23.244;2023-04-06T08:30:46;9.30;;;7.05;;
11414;SDS011;5763;42.714;23.244;2023-04-06T08:33:14;9.60;;;7.40;;
11414;SDS011;5763;42.714;23.244;2023-04-06T08:35:41;9.38;;;7.60;;
11414;SDS011;5763;42.714;23.244;2023-04-06T08:38:08;10.18;;;7.53;;
11414;SDS011;5763;42.714;23.244;2023-04-06T08:40:38;9.50;;;6.47;;
11414;SDS011;5763;42.714;23.244;2023-04-06T08:43:06;7.65;;;6.63;;
11414;SDS011;5763;42.714;23.244;2023-04-06T08:45:36;9.30;;;7.53;;
11414;SDS011;5763;42.714;23.244;2023-04-06T08:48:04;10.73;;;8.18;;
11414;SDS011;5763;42.714;23.244;2023-04-06T08:50:33;12.02;;;8.27;;
11414;SDS011;5763;42.714;23.244;2023-04-06T08:53:00;11.27;;;7.63;;
11414;SDS011;5763;42.714;23.244;2023-04-06T08:55:28;9.30;;;7.57;;
11414;SDS011;5763;42.714;23.244;2023-04-06T08:57:55;8.93;;;7.22;;
11414;SDS011;5763;42.714;23.244;2023-04-06T09:00:23;8.98;;;6.68;;
11414;SDS011;5763;42.714;23.244;2023-04-06T09:02:51;7.72;;;6.63;;
11414;SDS011;5763;42.714;23.244;2023-04-06T09:05:21;9.50;;;7.45;;
11414;SDS011;5763;42.714;23.244;2023-04-06T09:07:51;8.93;;;8.00;;
11414;SDS011;5763;42.714;23.244;2023-04-06T09:10:18;10.68;;;8.73;;
11414;SDS011;5763;42.714;23.244;2023-04-06T09:12:45;11.32;;;7.85;;
11414;SDS011;5763;42.714;23.244;2023-04-06T09:15:19;8.30;;;7.38;;
11414;SDS011;5763;42.714;23.244;2023-04-06T09:17:46;9.90;;;7.43;;
11414;SDS011;5763;42.714;23.244;2023-04-06T09:20:13;8.98;;;7.25;;
11414;SDS011;5763;42.714;23.244;2023-04-06T09:22:42;8.82;;;7.22;;
11414;SDS011;5763;42.714;23.244;2023-04-06T09:25:17;11.43;;;7.20;;
11414;SDS011;5763;42.714;23.244;2023-04-06T09:27:46;8.07;;;7.28;;
11414;SDS011;5763;42.714;23.244;2023-04-06T09:30:13;9.73;;;7.00;;
11414;SDS011;5763;42.714;23.244;2023-04-06T09:32:45;9.40;;;6.90;;
11414;SDS011;5763;42.714;23.244;2023-04-06T09:35:14;11.50;;;7.25;;
11414;SDS011;5763;42.714;23.244;2023-04-06T09:37:41;9.13;;;7.35;;
11414;SDS011;5763;42.714;23.244;2023-04-06T09:40:10;8.98;;;6.95;;
11414;SDS011;5763;42.714;23.244;2023-04-06T09:42:39;9.13;;;8.18;;
11414;SDS011;5763;42.714;23.244;2023-04-06T09:45:07;9.02;;;7.82;;
11414;SDS011;5763;42.714;23.244;2023-04-06T09:47:35;7.93;;;7.13;;
11414;SDS011;5763;42.714;23.244;2023-04-06T09:50:05;7.72;;;6.88;;
11414;SDS011;5763;42.714;23.244;2023-04-06T09:52:37;6.95;;;6.25;;
11414;SDS011;5763;42.714;23.244;2023-04-06T09:55:06;8.00;;;6.72;;
11414;SDS011;5763;42.714;23.244;2023-04-06T09:57:37;7.40;;;6.60;;
11414;SDS011;5763;42.714;23.244;2023-04-06T10:00:09;8.05;;;5.97;;
11414;SDS011;5763;42.714;23.244;2023-04-06T10:02:45;7.53;;;6.35;;
11414;SDS011;5763;42.714;23.244;2023-04-06T10:05:17;9.00;;;6.25;;
11414;SDS011;5763;42.714;23.244;2023-04-06T10:07:49;8.35;;;7.03;;
11414;SDS011;5763;42.714;23.244;2023-04-06T10:10:19;7.85;;;5.90;;
11414;SDS011;5763;42.714;23.244;2023-04-06T10:12:48;7.55;;;5.97;;
11414;SDS011;5763;42.714;23.244;2023-04-06T10:15:15;7.40;;;6.32;;
11414;SDS011;5763;42.714;23.244;2023-04-06T10:17:42;7.43;;;6.07;;
11414;SDS011;5763;42.714;23.244;2023-04-06T10:20:10;8.30;;;6.32;;
11414;SDS011;5763;42.714;23.244;2023-04-06T10:22:43;6.65;;;5.68;;
11414;SDS011;5763;42.714;23.244;2023-04-06T10:25:25;7.10;;;6.40;;
11414;SDS011;5763;42.714;23.244;2023-04-06T10:28:00;9.80;;;7.15;;
11414;SDS011;5763;42.714;23.244;2023-04-06T10:30:27;8.15;;;6.25;;
11414;SDS011;5763;42.714;23.244;2023-04-06T10:32:55;9.38;;;6.97;;
11414;SDS011;5763;42.714;23.244;2023-04-06T10:35:22;8.43;;;6.63;;
11414;SDS011;5763;42.714;23.244;2023-04-06T10:37:52;6.88;;;6.25;;
11414;SDS011;5763;42.714;23.244;2023-04-06T10:40:26;8.25;;;6.03;;
11414;SDS011;5763;42.714;23.244;2023-04-06T10:42:54;8.52;;;7.25;;
11414;SDS011;5763;42.714;23.244;2023-04-06T10:45:24;7.20;;;6.43;;
11414;SDS011;5763;42.714;23.244;2023-04-06T10:47:52;7.68;;;6.85;;
11414;SDS011;5763;42.714;23.244;2023-04-06T10:50:20;7.78;;;6.90;;
11414;SDS011;5763;42.714;23.244;2023-04-06T10:52:57;6.38;;;5.70;;
11414;SDS011;5763;42.714;23.244;2023-04-06T10:55:25;6.82;;;6.13;;
11414;SDS011;5763;42.714;23.244;2023-04-06T10:57:52;7.40;;;6.70;;
11414;SDS011;5763;42.714;23.244;2023-04-06T11:00:20;7.13;;;6.43;;
11414;SDS011;5763;42.714;23.244;2023-04-06T11:02:48;6.88;;;6.22;;
11414;SDS011;5763;42.714;23.244;2023-04-06T11:05:15;7.65;;;6.03;;
11414;SDS011;5763;42.714;23.244;2023-04-06T11:07:43;7.35;;;6.65;;
11414;SDS011;5763;42.714;23.244;2023-04-06T11:10:11;8.18;;;6.55;;
11414;SDS011;5763;42.714;23.244;2023-04-06T11:12:37;6.93;;;6.25;;
11414;SDS011;5763;42.714;23.244;2023-04-06T11:15:05;7.30;;;6.07;;
11414;SDS011;5763;42.714;23.244;2023-04-06T11:17:33;7.95;;;5.93;;
11414;SDS011;5763;42.714;23.244;2023-04-06T11:20:04;6.03;;;5.43;;
11414;SDS011;5763;42.714;23.244;2023-04-06T11:22:35;6.60;;;5.57;;
11414;SDS011;5763;42.714;23.244;2023-04-06T11:25:05;8.63;;;6.72;;
11414;SDS011;5763;42.714;23.244;2023-04-06T11:27:33;6.32;;;5.72;;
11414;SDS011;5763;42.714;23.244;2023-04-06T11:30:00;5.75;;;5.18;;
11414;SDS011;5763;42.714;23.244;2023-04-06T11:32:27;6.63;;;5.75;;
11414;SDS011;5763;42.714;23.244;2023-04-06T11:34:54;7.00;;;5.63;;
11414;SDS011;5763;42.714;23.244;2023-04-06T11:37:25;6.03;;;5.43;;
11414;SDS011;5763;42.714;23.244;2023-04-06T11:39:54;7.20;;;6.40;;
11414;SDS011;5763;42.714;23.244;2023-04-06T11:42:22;6.88;;;6.18;;
11414;SDS011;5763;42.714;23.244;2023-04-06T11:44:50;5.95;;;4.82;;
11414;SDS011;5763;42.714;23.244;2023-04-06T11:47:18;5.93;;;5.32;;
11414;SDS011;5763;42.714;23.244;2023-04-06T11:49:45;7.53;;;6.57;;
11414;SDS011;5763;42.714;23.244;2023-04-06T11:52:16;6.93;;;6.10;;
11414;SDS011;5763;42.714;23.244;2023-04-06T11:54:46;6.63;;;5.93;;
11414;SDS011;5763;42.714;23.244;2023-04-06T11:57:14;6.80;;;5.88;;
11414;SDS011;5763;42.714;23.244;2023-04-06T11:59:42;8.18;;;6.20;;
11414;SDS011;5763;42.714;23.244;2023-04-06T12:02:09;7.45;;;5.60;;
11414;SDS011;5763;42.714;23.244;2023-04-06T12:04:36;8.63;;;5.78;;
11414;SDS011;5763;42.714;23.244;2023-04-06T12:07:04;6.75;;;5.90;;
11414;SDS011;5763;42.714;23.244;2023-04-06T12:09:31;6.15;;;5.55;;
11414;SDS011;5763;42.714;23.244;2023-04-06T12:12:01;6.50;;;5.57;;
11414;SDS011;5763;42.714;23.244;2023-04-06T12:14:27;6.78;;;6.07;;
11414;SDS011;5763;42.714;23.244;2023-04-06T12:16:55;6.18;;;5.32;;
11414;SDS011;5763;42.714;23.244;2023-04-06T12:19:22;6.28;;;5.68;;
11414;SDS011;5763;42.714;23.244;2023-04-06T12:21:50;6.22;;;5.63;;
11414;SDS011;5763;42.714;23.244;2023-04-06T12:24:18;7.68;;;5.65;;
11414;SDS011;5763;42.714;23.244;2023-04-06T12:26:45;7.50;;;5.47;;
11414;SDS011;5763;42.714;23.244;2023-04-06T12:29:13;7.72;;;5.75;;
11414;SDS011;5763;42.714;23.244;2023-04-06T12:31:40;7.47;;;5.68;;
11414;SDS011;5763;42.714;23.244;2023-04-06T12:34:09;6.10;;;4.80;;
11414;SDS011;5763;42.714;23.244;2023-04-06T12:36:36;5.93;;;5.15;;
11414;SDS011;5763;42.714;23.244;2023-04-06T12:39:03;6.00;;;5.00;;
11414;SDS011;5763;42.714;23.244;2023-04-06T12:41:31;5.75;;;5.15;;
11414;SDS011;5763;42.714;23.244;2023-04-06T12:43:58;6.43;;;5.28;;
11414;SDS011;5763;42.714;23.244;2023-04-06T12:46:27;6.30;;;5.38;;
11414;SDS011;5763;42.714;23.244;2023-04-06T12:48:55;6.40;;;5.70;;
11414;SDS011;5763;42.714;23.244;2023-04-06T12:51:24;8.82;;;6.20;;
11414;SDS011;5763;42.714;23.244;2023-04-06T12:53:51;6.63;;;5.88;;
11414;SDS011;5763;42.714;23.244;2023-04-06T12:56:18;6.93;;;6.18;;
11414;SDS011;5763;42.714;23.244;2023-04-06T12:58:46;8.55;;;6.43;;
11414;SDS011;5763;42.714;23.244;2023-04-06T13:01:13;7.32;;;5.68;;
11414;SDS011;5763;42.714;23.244;2023-04-06T13:03:41;7.88;;;5.63;;
11414;SDS011;5763;42.714;23.244;2023-04-06T13:06:09;6.43;;;4.93;;
11414;SDS011;5763;42.714;23.244;2023-04-06T13:08:37;5.45;;;4.80;;
11414;SDS011;5763;42.714;23.244;2023-04-06T13:11:04;6.50;;;5.25;;
11414;SDS011;5763;42.714;23.244;2023-04-06T13:13:33;5.78;;;4.90;;
11414;SDS011;5763;42.714;23.244;2023-04-06T13:16:00;5.60;;;4.95;;
11414;SDS011;5763;42.714;23.244;2023-04-06T13:18:29;7.32;;;5.13;;
11414;SDS011;5763;42.714;23.244;2023-04-06T13:20:58;6.43;;;5.13;;
11414;SDS011;5763;42.714;23.244;2023-04-06T13:23:25;5.50;;;4.95;;
11414;SDS011;5763;42.714;23.244;2023-04-06T13:25:58;8.43;;;5.72;;
11414;SDS011;5763;42.714;23.244;2023-04-06T13:28:26;5.63;;;5.13;;
11414;SDS011;5763;42.714;23.244;2023-04-06T13:30:54;6.90;;;5.35;;
11414;SDS011;5763;42.714;23.244;2023-04-06T13:33:21;5.25;;;4.75;;
11414;SDS011;5763;42.714;23.244;2023-04-06T13:35:48;6.07;;;5.00;;
11414;SDS011;5763;42.714;23.244;2023-04-06T13:38:16;7.32;;;5.38;;
11414;SDS011;5763;42.714;23.244;2023-04-06T13:40:43;7.20;;;5.82;;
11414;SDS011;5763;42.714;23.244;2023-04-06T13:43:10;6.00;;;5.40;;
11414;SDS011;5763;42.714;23.244;2023-04-06T13:45:37;7.38;;;5.93;;
11414;SDS011;5763;42.714;23.244;2023-04-06T13:48:05;6.63;;;5.53;;
11414;SDS011;5763;42.714;23.244;2023-04-06T13:50:32;7.75;;;5.68;;
11414;SDS011;5763;42.714;23.244;2023-04-06T13:52:59;8.50;;;5.97;;
11414;SDS011;5763;42.714;23.244;2023-04-06T13:55:27;5.65;;;5.13;;
11414;SDS011;5763;42.714;23.244;2023-04-06T13:57:56;5.80;;;5.28;;
11414;SDS011;5763;42.714;23.244;2023-04-06T14:00:23;8.10;;;5.60;;
11414;SDS011;5763;42.714;23.244;2023-04-06T14:02:50;8.80;;;6.85;;
11414;SDS011;5763;42.714;23.244;2023-04-06T14:05:17;7.07;;;6.07;;
11414;SDS011;5763;42.714;23.244;2023-04-06T14:07:44;7.05;;;6.35;;
11414;SDS011;5763;42.714;23.244;2023-04-06T14:10:10;6.85;;;5.30;;
11414;SDS011;5763;42.714;23.244;2023-04-06T14:12:40;6.30;;;5.43;;
11414;SDS011;5763;42.714;23.244;2023-04-06T14:15:09;6.38;;;4.95;;
11414;SDS011;5763;42.714;23.244;2023-04-06T14:17:37;7.25;;;5.30;;
11414;SDS011;5763;42.714;23.244;2023-04-06T14:20:04;6.38;;;5.75;;
11414;SDS011;5763;42.714;23.244;2023-04-06T14:22:32;6.07;;;5.47;;
11414;SDS011;5763;42.714;23.244;2023-04-06T14:25:00;7.88;;;6.30;;
11414;SDS011;5763;42.714;23.244;2023-04-06T14:27:27;7.85;;;5.82;;
11414;SDS011;5763;42.714;23.244;2023-04-06T14:29:55;8.02;;;6.22;;
11414;SDS011;5763;42.714;23.244;2023-04-06T14:32:22;6.78;;;5.57;;
11414;SDS011;5763;42.714;23.244;2023-04-06T14:34:49;9.30;;;6.00;;
11414;SDS011;5763;42.714;23.244;2023-04-06T14:37:16;6.45;;;5.80;;
11414;SDS011;5763;42.714;23.244;2023-04-06T14:39:43;6.47;;;5.30;;
11414;SDS011;5763;42.714;23.244;2023-04-06T14:42:11;8.07;;;6.55;;
11414;SDS011;5763;42.714;23.244;2023-04-06T14:44:37;7.40;;;6.40;;
11414;SDS011;5763;42.714;23.244;2023-04-06T14:47:09;7.03;;;5.90;;